sensor_id;sensor_type;location;lat;lon;timestamp;pressure;altitude;pressure_sealevel;temperature;humidity
39177;BME280;24904;52.208;21.192;2022-10-31T00:04:06;100901.95;;;8.85;77.99
39177;BME280;24904;52.208;21.192;2022-10-31T00:09:10;100902.84;;;8.80;78.02
39177;BME280;24904;52.208;21.192;2022-10-31T00:14:14;100911.58;;;8.76;78.23
39177;BME280;24904;52.208;21.192;2022-10-31T00:19:17;100911.48;;;8.75;78.26
39177;BME280;24904;52.208;21.192;2022-10-31T00:24:20;100911.52;;;8.72;78.37
39177;BME280;24904;52.208;21.192;2022-10-31T00:29:23;100914.86;;;8.68;78.13
39177;BME280;24904;52.208;21.192;2022-10-31T00:34:27;100910.38;;;8.60;78.16
39177;BME280;24904;52.208;21.192;2022-10-31T00:39:30;100913.11;;;8.55;78.38
39177;BME280;24904;52.208;21.192;2022-10-31T00:44:33;100909.35;;;8.52;78.23
39177;BME280;24904;52.208;21.192;2022-10-31T00:49:36;100915.27;;;8.46;78.56
39177;BME280;24904;52.208;21.192;2022-10-31T01:03:04;100916.42;;;8.42;78.54
39177;BME280;24904;52.208;21.192;2022-10-31T01:08:07;100922.02;;;8.39;78.14
39177;BME280;24904;52.208;21.192;2022-10-31T01:13:10;100925.23;;;8.34;78.08
39177;BME280;24904;52.208;21.192;2022-10-31T01:18:13;100925.26;;;8.27;78.20
39177;BME280;24904;52.208;21.192;2022-10-31T01:23:16;100929.55;;;8.24;78.29
39177;BME280;24904;52.208;21.192;2022-10-31T01:28:19;100927.00;;;8.25;78.19
39177;BME280;24904;52.208;21.192;2022-10-31T01:33:22;100927.15;;;8.19;78.16
39177;BME280;24904;52.208;21.192;2022-10-31T01:38:25;100930.23;;;8.13;78.08
39177;BME280;24904;52.208;21.192;2022-10-31T01:43:43;100926.98;;;8.06;78.12
39177;BME280;24904;52.208;21.192;2022-10-31T01:48:47;100929.09;;;8.03;78.12
39177;BME280;24904;52.208;21.192;2022-10-31T01:53:51;100935.54;;;7.97;78.05
39177;BME280;24904;52.208;21.192;2022-10-31T01:58:59;100941.01;;;7.92;78.29
39177;BME280;24904;52.208;21.192;2022-10-31T02:04:04;100939.65;;;7.93;78.25
39177;BME280;24904;52.208;21.192;2022-10-31T02:09:08;100933.42;;;7.94;78.21
39177;BME280;24904;52.208;21.192;2022-10-31T02:14:12;100930.71;;;7.87;78.20
39177;BME280;24904;52.208;21.192;2022-10-31T02:19:21;100931.67;;;7.81;78.31
39177;BME280;24904;52.208;21.192;2022-10-31T02:24:47;100937.19;;;7.77;78.09
39177;BME280;24904;52.208;21.192;2022-10-31T02:30:07;100937.07;;;7.73;78.18
39177;BME280;24904;52.208;21.192;2022-10-31T02:35:20;100934.97;;;7.71;78.46
39177;BME280;24904;52.208;21.192;2022-10-31T02:40:26;100936.27;;;7.68;78.20
39177;BME280;24904;52.208;21.192;2022-10-31T02:45:58;100939.28;;;7.67;78.30
39177;BME280;24904;52.208;21.192;2022-10-31T02:51:06;100939.11;;;7.61;78.35
39177;BME280;24904;52.208;21.192;2022-10-31T02:56:14;100934.98;;;7.58;78.24
39177;BME280;24904;52.208;21.192;2022-10-31T03:02:06;100936.40;;;7.55;78.38
39177;BME280;24904;52.208;21.192;2022-10-31T03:07:20;100941.51;;;7.54;78.44
39177;BME280;24904;52.208;21.192;2022-10-31T03:12:27;100943.17;;;7.55;78.31
39177;BME280;24904;52.208;21.192;2022-10-31T03:17:37;100949.05;;;7.53;78.29
39177;BME280;24904;52.208;21.192;2022-10-31T03:22:43;100953.86;;;7.52;78.23
39177;BME280;24904;52.208;21.192;2022-10-31T03:27:47;100961.98;;;7.47;78.13
39177;BME280;24904;52.208;21.192;2022-10-31T03:32:54;100961.88;;;7.44;78.27
39177;BME280;24904;52.208;21.192;2022-10-31T03:38:00;100969.65;;;7.40;78.25
39177;BME280;24904;52.208;21.192;2022-10-31T03:43:45;100971.71;;;7.41;78.26
39177;BME280;24904;52.208;21.192;2022-10-31T03:48:50;100976.98;;;7.37;78.29
39177;BME280;24904;52.208;21.192;2022-10-31T03:54:00;100979.16;;;7.35;78.24
39177;BME280;24904;52.208;21.192;2022-10-31T03:59:09;100984.73;;;7.34;78.19
39177;BME280;24904;52.208;21.192;2022-10-31T04:04:15;100980.99;;;7.32;78.19
39177;BME280;24904;52.208;21.192;2022-10-31T04:09:20;100983.33;;;7.29;78.32
39177;BME280;24904;52.208;21.192;2022-10-31T04:14:25;100986.23;;;7.28;78.39
39177;BME280;24904;52.208;21.192;2022-10-31T04:19:29;100986.40;;;7.25;78.36
39177;BME280;24904;52.208;21.192;2022-10-31T04:24:32;100986.76;;;7.25;78.45
39177;BME280;24904;52.208;21.192;2022-10-31T04:29:35;100988.75;;;7.19;78.54
39177;BME280;24904;52.208;21.192;2022-10-31T04:34:38;100992.16;;;7.14;78.85
39177;BME280;24904;52.208;21.192;2022-10-31T04:39:41;100990.89;;;7.11;79.14
39177;BME280;24904;52.208;21.192;2022-10-31T04:45:05;100989.88;;;7.11;79.35
39177;BME280;24904;52.208;21.192;2022-10-31T04:50:09;100991.61;;;7.07;79.49
39177;BME280;24904;52.208;21.192;2022-10-31T04:55:14;100995.36;;;7.07;79.92
39177;BME280;24904;52.208;21.192;2022-10-31T05:00:24;100996.15;;;7.14;79.93
39177;BME280;24904;52.208;21.192;2022-10-31T05:05:30;100998.64;;;7.14;79.68
39177;BME280;24904;52.208;21.192;2022-10-31T05:10:36;101003.45;;;7.16;79.71
39177;BME280;24904;52.208;21.192;2022-10-31T05:15:39;101012.12;;;7.13;79.63
39177;BME280;24904;52.208;21.192;2022-10-31T05:20:45;101011.85;;;7.12;79.66
39177;BME280;24904;52.208;21.192;2022-10-31T05:25:58;101013.02;;;7.14;79.54
39177;BME280;24904;52.208;21.192;2022-10-31T05:31:02;101017.56;;;7.13;79.68
39177;BME280;24904;52.208;21.192;2022-10-31T05:36:06;101011.46;;;7.10;79.85
39177;BME280;24904;52.208;21.192;2022-10-31T05:41:17;101014.86;;;7.07;80.17
39177;BME280;24904;52.208;21.192;2022-10-31T05:46:21;101022.20;;;7.12;79.86
39177;BME280;24904;52.208;21.192;2022-10-31T05:51:43;101026.57;;;7.12;79.69
39177;BME280;24904;52.208;21.192;2022-10-31T05:56:46;101028.66;;;7.18;79.39
39177;BME280;24904;52.208;21.192;2022-10-31T06:08:17;101032.27;;;7.21;79.47
39177;BME280;24904;52.208;21.192;2022-10-31T06:13:21;101030.39;;;7.25;79.61
39177;BME280;24904;52.208;21.192;2022-10-31T06:18:33;101029.03;;;7.26;79.73
39177;BME280;24904;52.208;21.192;2022-10-31T06:23:36;101017.08;;;7.26;79.87
39177;BME280;24904;52.208;21.192;2022-10-31T06:29:05;101027.23;;;7.42;80.49
39177;BME280;24904;52.208;21.192;2022-10-31T06:34:27;101026.98;;;7.58;80.22
39177;BME280;24904;52.208;21.192;2022-10-31T06:39:30;101037.98;;;7.69;79.87
39177;BME280;24904;52.208;21.192;2022-10-31T06:44:34;101041.77;;;7.77;79.72
39177;BME280;24904;52.208;21.192;2022-10-31T06:49:56;101042.64;;;7.87;79.77
39177;BME280;24904;52.208;21.192;2022-10-31T06:55:00;101049.26;;;7.96;79.89
39177;BME280;24904;52.208;21.192;2022-10-31T07:00:06;101055.82;;;8.11;80.28
39177;BME280;24904;52.208;21.192;2022-10-31T07:05:32;101053.14;;;8.29;80.76
39177;BME280;24904;52.208;21.192;2022-10-31T07:10:39;101052.58;;;8.46;80.40
39177;BME280;24904;52.208;21.192;2022-10-31T07:15:44;101047.57;;;8.62;80.92
39177;BME280;24904;52.208;21.192;2022-10-31T07:20:49;101048.98;;;8.83;81.23
39177;BME280;24904;52.208;21.192;2022-10-31T07:25:56;101050.80;;;9.06;81.31
39177;BME280;24904;52.208;21.192;2022-10-31T07:31:07;101056.06;;;9.26;81.84
39177;BME280;24904;52.208;21.192;2022-10-31T07:36:10;101060.88;;;9.48;82.09
39177;BME280;24904;52.208;21.192;2022-10-31T07:47:39;101066.67;;;10.00;82.51
39177;BME280;24904;52.208;21.192;2022-10-31T07:52:45;101065.68;;;10.23;82.50
39177;BME280;24904;52.208;21.192;2022-10-31T07:58:09;101060.23;;;10.45;82.44
39177;BME280;24904;52.208;21.192;2022-10-31T08:03:15;101053.60;;;10.64;82.51
39177;BME280;24904;52.208;21.192;2022-10-31T08:08:37;101055.00;;;10.82;82.53
39177;BME280;24904;52.208;21.192;2022-10-31T08:13:40;101058.09;;;11.02;82.45
39177;BME280;24904;52.208;21.192;2022-10-31T08:18:45;101060.04;;;11.21;82.43
39177;BME280;24904;52.208;21.192;2022-10-31T08:23:49;101053.10;;;11.40;82.28
39177;BME280;24904;52.208;21.192;2022-10-31T08:28:55;101062.02;;;11.59;82.26
39177;BME280;24904;52.208;21.192;2022-10-31T08:33:58;101066.29;;;11.78;81.94
39177;BME280;24904;52.208;21.192;2022-10-31T08:39:20;101074.71;;;11.96;81.66
39177;BME280;24904;52.208;21.192;2022-10-31T08:44:23;101070.39;;;12.11;81.35
39177;BME280;24904;52.208;21.192;2022-10-31T08:49:26;101082.22;;;12.29;81.09
39177;BME280;24904;52.208;21.192;2022-10-31T08:54:29;101087.30;;;12.46;80.99
39177;BME280;24904;52.208;21.192;2022-10-31T08:59:32;101085.81;;;12.64;80.58
39177;BME280;24904;52.208;21.192;2022-10-31T09:05:05;101088.66;;;12.82;80.17
39177;BME280;24904;52.208;21.192;2022-10-31T09:10:10;101087.61;;;12.98;79.87
39177;BME280;24904;52.208;21.192;2022-10-31T09:15:14;101083.14;;;13.12;79.45
39177;BME280;24904;52.208;21.192;2022-10-31T09:20:24;101080.11;;;13.27;79.27
39177;BME280;24904;52.208;21.192;2022-10-31T09:25:28;101083.25;;;13.40;79.05
39177;BME280;24904;52.208;21.192;2022-10-31T09:30:53;101085.23;;;13.56;78.83
39177;BME280;24904;52.208;21.192;2022-10-31T09:36:16;101092.08;;;13.69;78.54
39177;BME280;24904;52.208;21.192;2022-10-31T09:41:23;101088.63;;;13.81;78.42
39177;BME280;24904;52.208;21.192;2022-10-31T09:46:34;101085.00;;;13.98;78.28
39177;BME280;24904;52.208;21.192;2022-10-31T09:51:44;101087.02;;;14.14;77.89
39177;BME280;24904;52.208;21.192;2022-10-31T09:56:58;101085.41;;;14.29;77.58
39177;BME280;24904;52.208;21.192;2022-10-31T10:02:05;101089.00;;;14.44;77.26
39177;BME280;24904;52.208;21.192;2022-10-31T10:07:28;101087.20;;;14.56;76.92
39177;BME280;24904;52.208;21.192;2022-10-31T10:12:42;101085.07;;;14.69;76.44
39177;BME280;24904;52.208;21.192;2022-10-31T10:17:55;101085.46;;;14.83;75.77
39177;BME280;24904;52.208;21.192;2022-10-31T10:23:29;101079.77;;;14.97;75.02
39177;BME280;24904;52.208;21.192;2022-10-31T10:28:38;101077.36;;;15.09;74.70
39177;BME280;24904;52.208;21.192;2022-10-31T10:33:47;101072.02;;;15.18;74.28
39177;BME280;24904;52.208;21.192;2022-10-31T10:38:56;101060.51;;;15.29;74.09
39177;BME280;24904;52.208;21.192;2022-10-31T10:44:01;101058.65;;;15.40;74.01
39177;BME280;24904;52.208;21.192;2022-10-31T10:49:16;101058.75;;;15.52;73.64
39177;BME280;24904;52.208;21.192;2022-10-31T10:54:45;101058.30;;;15.62;73.35
39177;BME280;24904;52.208;21.192;2022-10-31T10:59:49;101057.23;;;15.72;72.98
39177;BME280;24904;52.208;21.192;2022-10-31T11:04:55;101058.19;;;15.81;72.70
39177;BME280;24904;52.208;21.192;2022-10-31T11:10:05;101061.19;;;15.87;72.16
39177;BME280;24904;52.208;21.192;2022-10-31T11:15:21;101054.88;;;15.94;72.18
39177;BME280;24904;52.208;21.192;2022-10-31T11:20:28;101048.45;;;16.00;71.97
39177;BME280;24904;52.208;21.192;2022-10-31T11:25:34;101053.68;;;16.09;71.68
39177;BME280;24904;52.208;21.192;2022-10-31T11:30:44;101047.49;;;16.16;71.48
39177;BME280;24904;52.208;21.192;2022-10-31T11:35:49;101049.08;;;16.23;71.57
39177;BME280;24904;52.208;21.192;2022-10-31T11:40:55;101047.00;;;16.28;71.34
39177;BME280;24904;52.208;21.192;2022-10-31T11:45:59;101042.41;;;16.33;71.36
39177;BME280;24904;52.208;21.192;2022-10-31T11:51:03;101040.58;;;16.38;71.20
39177;BME280;24904;52.208;21.192;2022-10-31T11:56:14;101038.83;;;16.42;71.12
39177;BME280;24904;52.208;21.192;2022-10-31T12:01:25;101038.80;;;16.45;71.17
39177;BME280;24904;52.208;21.192;2022-10-31T12:06:32;101038.80;;;16.47;71.30
39177;BME280;24904;52.208;21.192;2022-10-31T12:11:46;101042.07;;;16.48;71.14
39177;BME280;24904;52.208;21.192;2022-10-31T12:16:57;101042.30;;;16.50;71.08
39177;BME280;24904;52.208;21.192;2022-10-31T12:22:12;101036.11;;;16.51;70.89
39177;BME280;24904;52.208;21.192;2022-10-31T12:27:27;101028.52;;;16.51;71.02
39177;BME280;24904;52.208;21.192;2022-10-31T12:32:41;101025.27;;;16.51;71.10
39177;BME280;24904;52.208;21.192;2022-10-31T12:38:09;101029.93;;;16.52;71.14
39177;BME280;24904;52.208;21.192;2022-10-31T12:43:25;101021.70;;;16.53;71.33
39177;BME280;24904;52.208;21.192;2022-10-31T12:59:10;101015.64;;;16.61;71.64
39177;BME280;24904;52.208;21.192;2022-10-31T13:04:21;101021.02;;;16.60;71.67
39177;BME280;24904;52.208;21.192;2022-10-31T13:09:40;101018.97;;;16.60;71.78
39177;BME280;24904;52.208;21.192;2022-10-31T13:22:09;101008.98;;;16.62;71.36
39177;BME280;24904;52.208;21.192;2022-10-31T13:27:20;101009.45;;;16.59;71.24
39177;BME280;24904;52.208;21.192;2022-10-31T13:32:26;101009.86;;;16.58;71.21
39177;BME280;24904;52.208;21.192;2022-10-31T13:37:36;101011.07;;;16.56;71.26
39177;BME280;24904;52.208;21.192;2022-10-31T13:42:52;101016.07;;;16.52;71.45
39177;BME280;24904;52.208;21.192;2022-10-31T13:47:59;101018.85;;;16.46;71.53
39177;BME280;24904;52.208;21.192;2022-10-31T13:53:12;101014.04;;;16.41;71.57
39177;BME280;24904;52.208;21.192;2022-10-31T13:58:24;101016.36;;;16.35;71.71
39177;BME280;24904;52.208;21.192;2022-10-31T14:03:28;101016.20;;;16.29;71.76
39177;BME280;24904;52.208;21.192;2022-10-31T14:08:36;101012.98;;;16.22;71.94
39177;BME280;24904;52.208;21.192;2022-10-31T14:13:44;101009.10;;;16.15;72.00
39177;BME280;24904;52.208;21.192;2022-10-31T14:18:51;101004.52;;;16.06;72.08
39177;BME280;24904;52.208;21.192;2022-10-31T14:23:59;101004.14;;;15.97;72.24
39177;BME280;24904;52.208;21.192;2022-10-31T14:29:23;101006.35;;;15.88;72.32
39177;BME280;24904;52.208;21.192;2022-10-31T14:34:29;101006.91;;;15.80;72.41
39177;BME280;24904;52.208;21.192;2022-10-31T14:39:39;101005.41;;;15.70;72.59
39177;BME280;24904;52.208;21.192;2022-10-31T14:45:02;101001.98;;;15.60;72.68
39177;BME280;24904;52.208;21.192;2022-10-31T14:50:22;101000.86;;;15.49;72.88
39177;BME280;24904;52.208;21.192;2022-10-31T14:55:28;101010.17;;;15.39;72.84
39177;BME280;24904;52.208;21.192;2022-10-31T15:00:32;101010.47;;;15.28;72.96
39177;BME280;24904;52.208;21.192;2022-10-31T15:05:42;101011.88;;;15.18;73.12
39177;BME280;24904;52.208;21.192;2022-10-31T15:10:47;101015.95;;;15.05;73.22
39177;BME280;24904;52.208;21.192;2022-10-31T15:15:52;101015.82;;;14.92;73.60
39177;BME280;24904;52.208;21.192;2022-10-31T15:20:57;101022.33;;;14.78;73.72
39177;BME280;24904;52.208;21.192;2022-10-31T15:26:01;101026.05;;;14.65;73.81
39177;BME280;24904;52.208;21.192;2022-10-31T15:31:13;101034.13;;;14.52;73.93
39177;BME280;24904;52.208;21.192;2022-10-31T15:36:22;101034.48;;;14.38;74.16
39177;BME280;24904;52.208;21.192;2022-10-31T15:41:30;101029.43;;;14.26;74.54
39177;BME280;24904;52.208;21.192;2022-10-31T15:46:34;101030.20;;;14.13;74.86
39177;BME280;24904;52.208;21.192;2022-10-31T15:59:49;101034.85;;;13.91;75.48
39177;BME280;24904;52.208;21.192;2022-10-31T16:04:57;101036.50;;;13.80;75.57
39177;BME280;24904;52.208;21.192;2022-10-31T16:15:27;101050.23;;;13.56;75.91
39177;BME280;24904;52.208;21.192;2022-10-31T16:20:33;101055.02;;;13.39;76.20
39177;BME280;24904;52.208;21.192;2022-10-31T16:25:40;101053.29;;;13.24;76.62
39177;BME280;24904;52.208;21.192;2022-10-31T16:30:47;101056.35;;;13.12;77.04
39177;BME280;24904;52.208;21.192;2022-10-31T16:35:53;101058.92;;;13.03;77.44
39177;BME280;24904;52.208;21.192;2022-10-31T16:40:59;101053.58;;;12.97;77.88
39177;BME280;24904;52.208;21.192;2022-10-31T16:46:08;101057.64;;;12.88;78.25
39177;BME280;24904;52.208;21.192;2022-10-31T16:51:17;101064.21;;;12.85;78.61
39177;BME280;24904;52.208;21.192;2022-10-31T16:56:26;101064.72;;;12.81;79.02
39177;BME280;24904;52.208;21.192;2022-10-31T17:01:33;101061.20;;;12.78;79.25
39177;BME280;24904;52.208;21.192;2022-10-31T17:06:40;101058.95;;;12.74;79.54
39177;BME280;24904;52.208;21.192;2022-10-31T17:11:48;101058.36;;;12.71;79.92
39177;BME280;24904;52.208;21.192;2022-10-31T17:16:55;101058.40;;;12.68;80.21
39177;BME280;24904;52.208;21.192;2022-10-31T17:22:02;101061.83;;;12.66;80.51
39177;BME280;24904;52.208;21.192;2022-10-31T17:27:08;101061.57;;;12.65;80.93
39177;BME280;24904;52.208;21.192;2022-10-31T17:32:14;101064.63;;;12.63;81.27
39177;BME280;24904;52.208;21.192;2022-10-31T17:37:20;101063.91;;;12.63;81.76
39177;BME280;24904;52.208;21.192;2022-10-31T17:42:26;101066.34;;;12.62;82.09
39177;BME280;24904;52.208;21.192;2022-10-31T17:47:32;101061.38;;;12.62;82.27
39177;BME280;24904;52.208;21.192;2022-10-31T17:52:38;101062.33;;;12.62;82.53
39177;BME280;24904;52.208;21.192;2022-10-31T17:57:44;101063.62;;;12.64;82.82
39177;BME280;24904;52.208;21.192;2022-10-31T18:02:52;101061.63;;;12.63;83.03
39177;BME280;24904;52.208;21.192;2022-10-31T18:07:58;101057.80;;;12.59;83.10
39177;BME280;24904;52.208;21.192;2022-10-31T18:13:04;101061.01;;;12.63;83.33
39177;BME280;24904;52.208;21.192;2022-10-31T18:18:11;101059.33;;;12.62;83.41
39177;BME280;24904;52.208;21.192;2022-10-31T18:31:00;101056.63;;;12.66;83.58
39177;BME280;24904;52.208;21.192;2022-10-31T18:36:07;101046.63;;;12.59;83.59
39177;BME280;24904;52.208;21.192;2022-10-31T18:41:14;101049.25;;;12.62;83.70
39177;BME280;24904;52.208;21.192;2022-10-31T18:46:20;101047.20;;;12.61;84.02
39177;BME280;24904;52.208;21.192;2022-10-31T18:51:26;101045.92;;;12.60;84.17
39177;BME280;24904;52.208;21.192;2022-10-31T18:56:32;101052.15;;;12.60;84.30
39177;BME280;24904;52.208;21.192;2022-10-31T19:01:38;101052.77;;;12.60;84.49
39177;BME280;24904;52.208;21.192;2022-10-31T19:06:44;101056.30;;;12.58;84.64
39177;BME280;24904;52.208;21.192;2022-10-31T19:11:49;101054.98;;;12.59;84.73
39177;BME280;24904;52.208;21.192;2022-10-31T19:16:56;101045.45;;;12.59;84.87
39177;BME280;24904;52.208;21.192;2022-10-31T19:22:02;101038.31;;;12.62;85.13
39177;BME280;24904;52.208;21.192;2022-10-31T19:27:09;101033.60;;;12.62;85.18
39177;BME280;24904;52.208;21.192;2022-10-31T19:32:15;101041.23;;;12.63;85.35
39177;BME280;24904;52.208;21.192;2022-10-31T19:37:21;101039.70;;;12.65;85.45
39177;BME280;24904;52.208;21.192;2022-10-31T19:42:27;101035.29;;;12.66;85.63
39177;BME280;24904;52.208;21.192;2022-10-31T19:55:57;101035.01;;;12.73;85.73
39177;BME280;24904;52.208;21.192;2022-10-31T20:01:07;101032.64;;;12.72;85.70
39177;BME280;24904;52.208;21.192;2022-10-31T20:06:17;101032.71;;;12.72;85.80
39177;BME280;24904;52.208;21.192;2022-10-31T20:11:26;101035.00;;;12.73;85.98
39177;BME280;24904;52.208;21.192;2022-10-31T20:16:32;101025.89;;;12.74;86.07
39177;BME280;24904;52.208;21.192;2022-10-31T20:21:39;101019.11;;;12.74;86.09
39177;BME280;24904;52.208;21.192;2022-10-31T20:26:45;101014.48;;;12.75;86.25
39177;BME280;24904;52.208;21.192;2022-10-31T20:31:51;101009.15;;;12.77;86.32
39177;BME280;24904;52.208;21.192;2022-10-31T20:36:57;101003.78;;;12.76;86.31
39177;BME280;24904;52.208;21.192;2022-10-31T20:42:03;101007.80;;;12.76;86.54
39177;BME280;24904;52.208;21.192;2022-10-31T20:47:09;100999.11;;;12.74;86.58
39177;BME280;24904;52.208;21.192;2022-10-31T20:52:15;101000.73;;;12.79;86.65
39177;BME280;24904;52.208;21.192;2022-10-31T20:57:22;101002.08;;;12.79;86.87
39177;BME280;24904;52.208;21.192;2022-10-31T21:02:28;101000.81;;;12.78;86.92
39177;BME280;24904;52.208;21.192;2022-10-31T21:07:33;101005.52;;;12.83;87.09
39177;BME280;24904;52.208;21.192;2022-10-31T21:12:40;101005.09;;;12.85;87.10
39177;BME280;24904;52.208;21.192;2022-10-31T21:17:46;101003.91;;;12.87;87.25
39177;BME280;24904;52.208;21.192;2022-10-31T21:22:52;101004.33;;;12.88;87.38
39177;BME280;24904;52.208;21.192;2022-10-31T21:27:59;101007.48;;;12.89;87.01
39177;BME280;24904;52.208;21.192;2022-10-31T21:33:05;100999.34;;;12.79;85.97
39177;BME280;24904;52.208;21.192;2022-10-31T21:38:11;101002.11;;;12.67;85.63
39177;BME280;24904;52.208;21.192;2022-10-31T21:43:17;100995.15;;;12.59;85.58
39177;BME280;24904;52.208;21.192;2022-10-31T21:48:23;100991.61;;;12.53;85.69
39177;BME280;24904;52.208;21.192;2022-10-31T21:53:32;100991.33;;;12.50;85.58
39177;BME280;24904;52.208;21.192;2022-10-31T21:58:55;100987.00;;;12.44;85.50
39177;BME280;24904;52.208;21.192;2022-10-31T22:04:02;100979.68;;;12.38;85.71
39177;BME280;24904;52.208;21.192;2022-10-31T22:09:09;100974.75;;;12.34;85.95
39177;BME280;24904;52.208;21.192;2022-10-31T22:14:15;100976.92;;;12.32;85.87
39177;BME280;24904;52.208;21.192;2022-10-31T22:19:20;100974.51;;;12.27;85.83
39177;BME280;24904;52.208;21.192;2022-10-31T22:24:25;100978.70;;;12.24;86.07
39177;BME280;24904;52.208;21.192;2022-10-31T22:29:30;100972.21;;;12.22;86.36
39177;BME280;24904;52.208;21.192;2022-10-31T22:42:03;100964.07;;;12.29;86.62
39177;BME280;24904;52.208;21.192;2022-10-31T22:47:06;100963.83;;;12.27;86.41
39177;BME280;24904;52.208;21.192;2022-10-31T22:52:09;100957.91;;;12.28;86.59
39177;BME280;24904;52.208;21.192;2022-10-31T22:57:12;100954.48;;;12.30;86.68
39177;BME280;24904;52.208;21.192;2022-10-31T23:02:15;100958.63;;;12.28;86.69
39177;BME280;24904;52.208;21.192;2022-10-31T23:07:18;100952.78;;;12.26;86.78
39177;BME280;24904;52.208;21.192;2022-10-31T23:12:21;100950.95;;;12.24;86.81
39177;BME280;24904;52.208;21.192;2022-10-31T23:17:42;100950.39;;;12.25;87.00
39177;BME280;24904;52.208;21.192;2022-10-31T23:22:45;100956.27;;;12.24;87.00
39177;BME280;24904;52.208;21.192;2022-10-31T23:27:48;100953.04;;;12.24;87.32
39177;BME280;24904;52.208;21.192;2022-10-31T23:32:51;100957.58;;;12.25;87.34
39177;BME280;24904;52.208;21.192;2022-10-31T23:37:54;100949.73;;;12.23;87.25
39177;BME280;24904;52.208;21.192;2022-10-31T23:42:57;100946.33;;;12.22;87.52
39177;BME280;24904;52.208;21.192;2022-10-31T23:48:00;100947.27;;;12.22;87.50
39177;BME280;24904;52.208;21.192;2022-10-31T23:53:04;100938.69;;;12.21;87.42
39177;BME280;24904;52.208;21.192;2022-10-31T23:58:07;100940.97;;;12.20;87.65
